createdAt,value
2023-05-04T00:01:29.486Z,89.78
2023-05-04T00:04:32.469Z,90.53
2023-05-04T00:07:35.376Z,90.74
2023-05-04T00:10:38.132Z,91.44
2023-05-04T00:13:40.939Z,91.63
2023-05-04T00:16:44.382Z,92.64
2023-05-04T00:19:47.236Z,92.61
2023-05-04T00:22:50.090Z,92.05
2023-05-04T00:25:52.803Z,91.79
2023-05-04T00:28:56.172Z,92.30
2023-05-04T00:31:59.226Z,92.82
2023-05-04T00:35:02.292Z,92.88
2023-05-04T00:38:05.850Z,92.54
2023-05-04T00:41:08.541Z,92.60
2023-05-04T00:44:11.425Z,92.27
2023-05-04T00:47:14.260Z,92.17
2023-05-04T00:50:17.372Z,92.48
2023-05-04T00:53:19.977Z,92.52
2023-05-04T00:56:26.281Z,93.72
2023-05-04T00:59:28.907Z,93.61
2023-05-04T01:02:32.447Z,94.08
2023-05-04T01:05:39.175Z,94.90
2023-05-04T01:08:47.179Z,95.62
2023-05-04T01:12:08.633Z,96.18
2023-05-04T01:15:12.787Z,95.36
2023-05-04T01:18:17.098Z,95.63
2023-05-04T01:21:19.776Z,94.87
2023-05-04T01:24:23.333Z,94.54
2023-05-04T01:27:43.683Z,94.15
2023-05-04T01:30:51.697Z,94.00
2023-05-04T01:33:56.969Z,94.07
2023-05-04T01:36:59.841Z,94.07
2023-05-04T01:40:03.054Z,94.35
2023-05-04T01:43:06.397Z,93.79
2023-05-04T01:46:09.294Z,94.70
2023-05-04T01:49:12.169Z,93.14
2023-05-04T01:52:14.855Z,92.16
2023-05-04T01:55:17.551Z,92.31
2023-05-04T01:58:20.578Z,92.17
2023-05-04T02:01:23.823Z,91.74
2023-05-04T02:04:26.808Z,92.25
2023-05-04T02:07:29.810Z,92.90
2023-05-04T02:10:32.523Z,93.78
2023-05-04T02:13:35.241Z,94.27
2023-05-04T02:16:38.217Z,94.05
2023-05-04T02:19:41.121Z,93.33
2023-05-04T02:22:44.210Z,94.30
2023-05-04T02:25:46.855Z,94.91
2023-05-04T02:28:49.648Z,95.17
2023-05-04T02:31:52.625Z,96.04
2023-05-04T02:34:55.375Z,96.49
2023-05-04T02:37:58.138Z,95.87
2023-05-04T02:41:00.808Z,96.85
2023-05-04T02:44:03.753Z,96.52
2023-05-04T02:47:08.016Z,96.82
2023-05-04T02:50:11.557Z,96.31
2023-05-04T02:53:14.243Z,96.60
2023-05-04T02:56:17.138Z,94.97
2023-05-04T02:59:20.035Z,94.65
2023-05-04T03:02:22.860Z,94.27
2023-05-04T03:05:25.624Z,93.79
2023-05-04T03:08:29.853Z,93.02
2023-05-04T03:11:32.517Z,93.72
2023-05-04T03:14:35.371Z,94.27
2023-05-04T03:17:38.817Z,94.31
2023-05-04T03:20:42.357Z,94.69
2023-05-04T03:23:48.706Z,94.58
2023-05-04T03:26:51.501Z,95.08
2023-05-04T03:29:54.394Z,95.09
2023-05-04T03:32:58.498Z,95.85
2023-05-04T03:36:01.298Z,97.41
2023-05-04T03:39:04.004Z,99.20
2023-05-04T03:42:08.768Z,100.00
2023-05-04T03:45:11.890Z,99.64
2023-05-04T03:48:15.700Z,98.61
2023-05-04T03:51:20.280Z,97.63
2023-05-04T03:54:23.099Z,97.21
2023-05-04T03:57:25.847Z,97.90
2023-05-04T04:00:30.892Z,98.80
2023-05-04T04:03:43.777Z,99.84
2023-05-04T04:06:47.813Z,100.00
2023-05-04T04:09:55.960Z,100.00
2023-05-04T04:12:58.665Z,100.00
2023-05-04T04:16:01.418Z,93.91
2023-05-04T04:19:04.133Z,72.88
2023-05-04T04:22:06.935Z,67.13
2023-05-04T04:25:10.711Z,63.63
2023-05-04T04:28:14.357Z,61.01
2023-05-04T04:31:18.937Z,60.42
2023-05-04T04:34:22.581Z,60.87
2023-05-04T04:37:25.420Z,61.79
2023-05-04T04:40:28.186Z,68.97
2023-05-04T04:43:31.205Z,75.37
2023-05-04T04:46:34.504Z,78.62
2023-05-04T04:49:37.510Z,80.46
2023-05-04T04:52:41.668Z,81.30
2023-05-04T04:55:44.961Z,82.73
2023-05-04T04:58:51.297Z,83.54
2023-05-04T05:01:54.263Z,84.35
2023-05-04T05:04:57.634Z,84.48
2023-05-04T05:08:00.863Z,84.51
2023-05-04T05:11:04.249Z,84.12
2023-05-04T05:14:07.156Z,84.12
2023-05-04T05:17:10.573Z,84.05
2023-05-04T05:20:14.494Z,84.26
2023-05-04T05:23:17.323Z,83.08
2023-05-04T05:26:21.264Z,81.93
2023-05-04T05:29:24.305Z,81.35
2023-05-04T05:32:27.155Z,81.83
2023-05-04T05:35:30.113Z,80.20
2023-05-04T05:38:33.117Z,78.70
2023-05-04T05:41:35.837Z,78.26
2023-05-04T05:44:38.443Z,76.89
2023-05-04T05:47:41.260Z,76.98
2023-05-04T05:50:44.048Z,75.97
2023-05-04T05:53:46.945Z,76.64
2023-05-04T05:56:49.841Z,74.99
2023-05-04T05:59:52.573Z,74.37
2023-05-04T06:02:56.331Z,72.99
2023-05-04T06:05:59.147Z,74.35
2023-05-04T06:09:01.792Z,72.21
2023-05-04T06:12:07.160Z,73.86
2023-05-04T06:15:10.409Z,73.09
2023-05-04T06:18:13.276Z,72.26
2023-05-04T06:21:16.034Z,71.67
2023-05-04T06:24:18.796Z,72.93
2023-05-04T06:27:22.336Z,72.13
2023-05-04T06:30:27.175Z,70.90
2023-05-04T06:33:30.133Z,71.63
2023-05-04T06:36:32.892Z,71.59
2023-05-04T06:39:38.486Z,69.74
2023-05-04T06:42:41.651Z,70.43
2023-05-04T06:45:45.069Z,69.97
2023-05-04T06:48:47.836Z,69.02
2023-05-04T06:51:50.590Z,67.11
2023-05-04T06:54:53.240Z,68.32
2023-05-04T06:57:55.948Z,66.93
2023-05-04T07:00:58.933Z,68.28
2023-05-04T07:04:01.986Z,67.08
2023-05-04T07:07:04.955Z,66.80
2023-05-04T07:10:08.656Z,67.11
2023-05-04T07:13:11.712Z,66.70
2023-05-04T07:16:14.487Z,66.70
2023-05-04T07:19:17.331Z,65.23
2023-05-04T07:22:21.450Z,66.87
2023-05-04T07:25:27.816Z,64.11
2023-05-04T07:28:30.756Z,64.35
2023-05-04T07:31:34.176Z,64.18
2023-05-04T07:34:45.197Z,63.98
2023-05-04T07:37:48.833Z,64.55
2023-05-04T07:40:51.548Z,63.12
2023-05-04T07:43:54.270Z,62.47
2023-05-04T07:46:59.907Z,63.14
2023-05-04T07:50:03.352Z,62.57
2023-05-04T07:53:06.528Z,63.19
2023-05-04T07:56:13.253Z,62.46
2023-05-04T07:59:19.007Z,62.29
2023-05-04T08:02:22.130Z,61.28
2023-05-04T08:05:25.294Z,62.24
2023-05-04T08:08:29.384Z,61.21
2023-05-04T08:11:34.972Z,60.27
2023-05-04T08:14:38.667Z,59.50
2023-05-04T08:17:41.711Z,59.23
2023-05-04T08:20:44.735Z,60.33
2023-05-04T08:23:47.654Z,60.27
2023-05-04T08:27:03.564Z,59.37
2023-05-04T08:30:10.478Z,60.48
2023-05-04T08:33:13.398Z,61.12
2023-05-04T08:36:16.309Z,60.88
2023-05-04T08:39:19.981Z,59.41
2023-05-04T08:42:32.997Z,57.34
2023-05-04T08:45:41.758Z,59.53
2023-05-04T08:48:46.914Z,58.44
2023-05-04T08:51:50.927Z,59.20
2023-05-04T08:54:56.142Z,60.06
2023-05-04T08:58:01.086Z,58.11
2023-05-04T09:01:04.884Z,59.01
2023-05-04T09:04:09.067Z,58.84
2023-05-04T09:07:12.245Z,57.57
2023-05-04T09:10:14.942Z,57.25
2023-05-04T09:13:18.373Z,58.28
2023-05-04T09:16:21.262Z,56.16
2023-05-04T09:19:24.151Z,57.57
2023-05-04T09:22:28.898Z,57.43
2023-05-04T09:25:31.621Z,55.83
2023-05-04T09:28:39.603Z,55.35
2023-05-04T09:31:47.652Z,57.11
2023-05-04T09:34:54.480Z,56.77
2023-05-04T09:37:58.223Z,55.58
2023-05-04T09:41:01.160Z,55.79
2023-05-04T09:44:05.008Z,56.25
2023-05-04T09:47:08.821Z,54.59
2023-05-04T09:50:20.248Z,53.00
2023-05-04T09:53:25.903Z,55.13
2023-05-04T09:56:50.121Z,52.66
2023-05-04T09:59:54.653Z,52.09
2023-05-04T10:02:57.587Z,52.75
2023-05-04T10:06:03.605Z,52.83
2023-05-04T10:09:06.755Z,51.27
2023-05-04T10:12:09.580Z,53.23
2023-05-04T10:15:12.920Z,54.48
2023-05-04T10:18:49.644Z,52.49
2023-05-04T10:22:14.173Z,51.78
2023-05-04T10:25:52.599Z,50.49
2023-05-04T10:29:16.660Z,50.98
2023-05-04T10:32:21.890Z,51.30
2023-05-04T10:35:26.072Z,50.95
2023-05-04T10:39:03.433Z,50.28
2023-05-04T10:42:09.332Z,51.11
2023-05-04T10:45:17.532Z,51.47
2023-05-04T10:48:20.306Z,51.74
2023-05-04T10:51:35.659Z,50.23
2023-05-04T10:54:45.629Z,51.82
2023-05-04T10:57:54.269Z,51.72
2023-05-04T11:00:57.313Z,50.56
2023-05-04T11:04:00.384Z,50.09
2023-05-04T11:07:05.679Z,51.41
2023-05-04T11:10:10.141Z,50.02
2023-05-04T11:13:13.242Z,50.89
2023-05-04T11:16:24.501Z,48.81
2023-05-04T11:19:27.532Z,49.82
2023-05-04T11:22:32.461Z,49.78
2023-05-04T11:25:37.211Z,49.11
2023-05-04T11:28:40.605Z,48.67
2023-05-04T11:31:45.038Z,50.25
2023-05-04T11:34:47.839Z,49.83
2023-05-04T11:37:50.950Z,49.89
2023-05-04T11:40:53.869Z,49.40
2023-05-04T11:43:57.366Z,48.99
2023-05-04T11:47:01.015Z,50.03
2023-05-04T11:50:05.403Z,49.82
2023-05-04T11:53:10.049Z,49.84
2023-05-04T11:56:12.972Z,50.00
2023-05-04T11:59:15.834Z,49.47
2023-05-04T12:02:18.961Z,48.34
2023-05-04T12:05:21.869Z,48.54
2023-05-04T12:08:35.430Z,47.16
2023-05-04T12:11:38.746Z,48.15
2023-05-04T12:14:52.410Z,48.83
2023-05-04T12:17:55.199Z,48.59
2023-05-04T12:21:10.644Z,46.18
2023-05-04T12:24:13.598Z,48.55
2023-05-04T12:27:16.342Z,46.58
2023-05-04T12:30:19.251Z,46.73
2023-05-04T12:33:22.258Z,48.28
2023-05-04T12:36:25.079Z,47.03
2023-05-04T12:39:29.867Z,47.86
2023-05-04T12:42:33.117Z,46.56
2023-05-04T12:45:35.931Z,48.16
2023-05-04T12:48:38.649Z,45.81
2023-05-04T12:51:41.496Z,45.93
2023-05-04T12:54:44.315Z,46.41
2023-05-04T12:57:47.103Z,46.46
2023-05-04T13:00:50.160Z,46.01
2023-05-04T13:03:52.944Z,45.45
2023-05-04T13:06:56.028Z,46.59
2023-05-04T13:09:59.017Z,45.65
2023-05-04T13:13:01.923Z,47.51
2023-05-04T13:16:06.134Z,45.71
2023-05-04T13:19:08.989Z,44.66
2023-05-04T13:22:11.822Z,44.84
2023-05-04T13:25:15.037Z,46.08
2023-05-04T13:28:18.633Z,44.46
2023-05-04T13:31:21.634Z,44.53
2023-05-04T13:34:24.496Z,43.65
2023-05-04T13:37:28.406Z,44.30
2023-05-04T13:40:31.246Z,45.59
2023-05-04T13:43:34.046Z,43.54
2023-05-04T13:46:37.265Z,42.91
2023-05-04T13:49:40.757Z,43.71
2023-05-04T13:52:43.549Z,44.59
2023-05-04T13:55:46.471Z,44.30
2023-05-04T13:58:49.265Z,41.82
2023-05-04T14:01:53.059Z,43.39
2023-05-04T14:04:56.276Z,44.75
2023-05-04T14:07:59.056Z,45.10
2023-05-04T14:11:02.311Z,44.17
2023-05-04T14:14:05.081Z,43.44
2023-05-04T14:17:08.349Z,43.72
2023-05-04T14:20:11.564Z,42.87
2023-05-04T14:23:14.477Z,42.56
2023-05-04T14:26:17.118Z,40.53
2023-05-04T14:29:20.158Z,42.60
2023-05-04T14:32:22.933Z,40.52
2023-05-04T14:35:25.924Z,41.00
2023-05-04T14:38:29.068Z,41.58
2023-05-04T14:41:33.971Z,41.30
2023-05-04T14:44:37.415Z,41.74
2023-05-04T14:47:42.592Z,42.57
2023-05-04T14:50:45.491Z,38.82
2023-05-04T14:53:48.279Z,39.09
2023-05-04T14:56:52.551Z,39.19
2023-05-04T14:59:55.351Z,39.55
2023-05-04T15:02:58.295Z,39.82
2023-05-04T15:06:01.423Z,39.53
2023-05-04T15:09:04.502Z,36.81
2023-05-04T15:12:07.970Z,35.69
2023-05-04T15:15:11.623Z,35.97
2023-05-04T15:18:14.610Z,38.61
2023-05-04T15:21:17.580Z,37.24
2023-05-04T15:24:20.307Z,30.95
2023-05-04T15:27:23.730Z,31.25
2023-05-04T15:30:26.386Z,31.61
2023-05-04T15:33:29.265Z,32.94
2023-05-04T15:36:32.076Z,30.68
2023-05-04T15:39:35.473Z,30.13
2023-05-04T15:42:39.129Z,34.65
2023-05-04T15:45:42.088Z,33.80
2023-05-04T15:48:45.109Z,32.70
2023-05-04T15:51:48.102Z,33.87
2023-05-04T15:54:51.370Z,32.07
2023-05-04T15:57:54.307Z,31.72
2023-05-04T16:00:57.650Z,33.87
2023-05-04T16:04:01.141Z,33.93
2023-05-04T16:07:03.822Z,35.35
2023-05-04T16:10:07.576Z,37.18
2023-05-04T16:13:12.167Z,37.55
2023-05-04T16:16:15.155Z,37.97
2023-05-04T16:19:18.330Z,39.63
2023-05-04T16:22:21.035Z,39.63
2023-05-04T16:25:23.957Z,39.97
2023-05-04T16:28:26.642Z,40.87
2023-05-04T16:31:29.747Z,41.05
2023-05-04T16:34:32.660Z,40.96
2023-05-04T16:37:37.244Z,42.47
2023-05-04T16:40:41.739Z,41.78
2023-05-04T16:43:44.539Z,42.03
2023-05-04T16:46:47.443Z,41.87
2023-05-04T16:49:50.477Z,42.33
2023-05-04T16:52:53.133Z,42.52
2023-05-04T16:55:56.261Z,43.41
2023-05-04T16:58:59.150Z,44.74
2023-05-04T17:02:01.971Z,46.17
2023-05-04T17:05:06.999Z,46.21
2023-05-04T17:08:11.883Z,45.69
2023-05-04T17:11:14.785Z,46.41
2023-05-04T17:14:17.519Z,46.89
2023-05-04T17:17:20.410Z,47.61
2023-05-04T17:20:25.155Z,48.30
2023-05-04T17:23:28.501Z,48.81
2023-05-04T17:26:31.623Z,49.90
2023-05-04T17:29:34.594Z,50.14
2023-05-04T17:32:37.916Z,50.83
2023-05-04T17:35:41.381Z,50.65
2023-05-04T17:38:45.125Z,51.07
2023-05-04T17:41:51.400Z,51.17
2023-05-04T17:44:54.328Z,51.38
2023-05-04T17:47:57.726Z,51.03
2023-05-04T17:51:00.868Z,51.00
2023-05-04T17:54:03.900Z,51.53
2023-05-04T17:57:06.879Z,52.02
2023-05-04T18:00:11.407Z,53.31
2023-05-04T18:03:14.572Z,53.07
2023-05-04T18:06:17.541Z,53.81
2023-05-04T18:09:20.873Z,53.69
2023-05-04T18:12:23.679Z,53.38
2023-05-04T18:15:29.771Z,53.27
2023-05-04T18:18:32.729Z,53.42
2023-05-04T18:21:37.569Z,53.93
2023-05-04T18:24:40.302Z,53.89
2023-05-04T18:27:43.499Z,54.10
2023-05-04T18:30:46.465Z,54.94
2023-05-04T18:33:49.495Z,55.53
2023-05-04T18:36:52.441Z,56.21
2023-05-04T18:39:55.373Z,56.39
2023-05-04T18:42:58.157Z,56.11
2023-05-04T18:46:07.997Z,57.38
2023-05-04T18:49:11.133Z,57.13
2023-05-04T18:52:14.134Z,57.59
2023-05-04T18:55:16.861Z,57.50
2023-05-04T18:58:19.784Z,57.08
2023-05-04T19:01:22.858Z,58.30
2023-05-04T19:04:25.581Z,56.45
2023-05-04T19:07:28.402Z,57.44
2023-05-04T19:10:32.240Z,57.72
2023-05-04T19:13:35.091Z,57.42
2023-05-04T19:16:37.922Z,57.18
2023-05-04T19:19:41.044Z,57.72
2023-05-04T19:22:43.927Z,56.65
2023-05-04T19:25:46.701Z,57.47
2023-05-04T19:28:49.733Z,57.18
2023-05-04T19:31:52.541Z,57.07
2023-05-04T19:34:55.360Z,58.44
2023-05-04T19:37:58.767Z,59.22
2023-05-04T19:41:02.077Z,59.08
2023-05-04T19:44:10.410Z,59.33
2023-05-04T19:47:13.167Z,59.74
2023-05-04T19:50:16.913Z,59.99
2023-05-04T19:53:19.845Z,60.31
2023-05-04T19:56:22.987Z,60.20
2023-05-04T19:59:25.859Z,61.33
2023-05-04T20:02:29.569Z,61.69
2023-05-04T20:05:32.686Z,61.02
2023-05-04T20:08:35.921Z,61.39
2023-05-04T20:11:38.819Z,60.57
2023-05-04T20:14:43.027Z,61.25
2023-05-04T20:17:45.891Z,60.78
2023-05-04T20:20:48.695Z,61.07
2023-05-04T20:23:51.902Z,61.13
2023-05-04T20:26:54.645Z,61.10
2023-05-04T20:29:57.528Z,61.47
2023-05-04T20:33:00.517Z,62.39
2023-05-04T20:36:05.046Z,61.29
2023-05-04T20:39:08.046Z,61.82
2023-05-04T20:42:11.110Z,62.13
2023-05-04T20:45:14.116Z,63.15
2023-05-04T20:48:17.007Z,62.74
2023-05-04T20:51:19.913Z,61.59
2023-05-04T20:54:23.402Z,62.12
2023-05-04T20:57:26.338Z,62.04
2023-05-04T21:00:31.001Z,62.00
2023-05-04T21:03:35.352Z,63.03
2023-05-04T21:06:38.379Z,63.55
2023-05-04T21:09:41.387Z,63.03
2023-05-04T21:12:44.294Z,62.85
2023-05-04T21:15:47.406Z,62.72
2023-05-04T21:18:50.228Z,63.79
2023-05-04T21:21:52.941Z,63.78
2023-05-04T21:24:56.123Z,64.10
2023-05-04T21:27:58.883Z,63.97
2023-05-04T21:31:01.842Z,64.11
2023-05-04T21:34:04.662Z,64.56
2023-05-04T21:37:07.463Z,64.70
2023-05-04T21:40:10.684Z,64.46
2023-05-04T21:43:13.466Z,63.99
2023-05-04T21:46:16.267Z,63.90
2023-05-04T21:49:19.025Z,64.54
2023-05-04T21:52:22.170Z,64.50
2023-05-04T21:55:24.860Z,64.94
2023-05-04T21:58:28.004Z,66.50
2023-05-04T22:01:30.771Z,65.29
2023-05-04T22:04:33.522Z,65.75
2023-05-04T22:07:36.856Z,66.11
2023-05-04T22:10:39.553Z,67.07
2023-05-04T22:13:42.273Z,66.48
2023-05-04T22:16:45.054Z,66.50
2023-05-04T22:19:47.960Z,67.00
2023-05-04T22:22:51.412Z,67.30
2023-05-04T22:25:54.229Z,67.11
2023-05-04T22:28:56.873Z,66.66
2023-05-04T22:31:59.569Z,67.25
2023-05-04T22:35:02.636Z,67.14
2023-05-04T22:38:05.432Z,68.03
2023-05-04T22:41:08.207Z,67.93
2023-05-04T22:44:11.670Z,68.34
2023-05-04T22:47:14.349Z,68.28
2023-05-04T22:50:17.753Z,68.61
2023-05-04T22:53:20.637Z,68.74
2023-05-04T22:56:26.415Z,68.48
2023-05-04T22:59:29.232Z,68.06
2023-05-04T23:02:32.140Z,68.14
2023-05-04T23:05:34.980Z,68.50
2023-05-04T23:08:38.008Z,68.70
2023-05-04T23:11:41.016Z,68.39
2023-05-04T23:14:43.760Z,68.53
2023-05-04T23:17:46.419Z,68.23
2023-05-04T23:20:49.131Z,68.26
2023-05-04T23:23:52.381Z,68.91
2023-05-04T23:26:55.059Z,69.82
2023-05-04T23:29:57.771Z,70.10
2023-05-04T23:33:00.606Z,70.58
2023-05-04T23:36:03.451Z,69.99
2023-05-04T23:39:06.251Z,69.04
2023-05-04T23:42:08.989Z,69.17
2023-05-04T23:45:12.092Z,69.10
2023-05-04T23:48:14.938Z,69.27
2023-05-04T23:51:17.612Z,69.43
2023-05-04T23:54:20.362Z,69.48
2023-05-04T23:57:23.031Z,69.33
